sensor_id;sensor_type;location;lat;lon;timestamp;P1;durP1;ratioP1;P2;durP2;ratioP2
16352;SDS011;8286;51.274;9.542;2024-03-17T00:02:03;7.90;;;3.00;;
16352;SDS011;8286;51.274;9.542;2024-03-17T00:04:31;6.97;;;2.37;;
16352;SDS011;8286;51.274;9.542;2024-03-17T00:06:57;4.03;;;2.50;;
16352;SDS011;8286;51.274;9.542;2024-03-17T00:09:23;3.50;;;2.70;;
16352;SDS011;8286;51.274;9.542;2024-03-17T00:11:50;4.17;;;2.80;;
16352;SDS011;8286;51.274;9.542;2024-03-17T00:14:16;5.03;;;3.10;;
16352;SDS011;8286;51.274;9.542;2024-03-17T00:16:43;7.20;;;2.60;;
16352;SDS011;8286;51.274;9.542;2024-03-17T00:19:10;6.33;;;3.40;;
16352;SDS011;8286;51.274;9.542;2024-03-17T00:21:36;6.03;;;3.13;;
16352;SDS011;8286;51.274;9.542;2024-03-17T00:24:03;2.00;;;1.80;;
16352;SDS011;8286;51.274;9.542;2024-03-17T00:26:29;3.90;;;2.43;;
16352;SDS011;8286;51.274;9.542;2024-03-17T00:28:55;4.93;;;2.50;;
16352;SDS011;8286;51.274;9.542;2024-03-17T00:31:21;10.07;;;2.63;;
16352;SDS011;8286;51.274;9.542;2024-03-17T00:33:49;5.33;;;2.80;;
16352;SDS011;8286;51.274;9.542;2024-03-17T00:36:16;4.00;;;2.37;;
16352;SDS011;8286;51.274;9.542;2024-03-17T00:38:44;5.33;;;2.40;;
16352;SDS011;8286;51.274;9.542;2024-03-17T00:41:10;7.20;;;3.13;;
16352;SDS011;8286;51.274;9.542;2024-03-17T00:43:37;8.40;;;3.27;;
16352;SDS011;8286;51.274;9.542;2024-03-17T00:46:03;5.73;;;3.13;;
16352;SDS011;8286;51.274;9.542;2024-03-17T00:48:29;4.50;;;3.03;;
16352;SDS011;8286;51.274;9.542;2024-03-17T00:50:56;7.37;;;4.67;;
16352;SDS011;8286;51.274;9.542;2024-03-17T00:53:24;6.50;;;3.50;;
16352;SDS011;8286;51.274;9.542;2024-03-17T00:55:54;4.70;;;3.50;;
16352;SDS011;8286;51.274;9.542;2024-03-17T00:58:23;7.73;;;3.17;;
16352;SDS011;8286;51.274;9.542;2024-03-17T01:00:48;5.17;;;3.57;;
16352;SDS011;8286;51.274;9.542;2024-03-17T01:03:15;4.17;;;3.27;;
16352;SDS011;8286;51.274;9.542;2024-03-17T01:05:41;6.60;;;3.20;;
16352;SDS011;8286;51.274;9.542;2024-03-17T01:08:09;5.13;;;3.53;;
16352;SDS011;8286;51.274;9.542;2024-03-17T01:10:36;5.83;;;3.07;;
16352;SDS011;8286;51.274;9.542;2024-03-17T01:13:05;5.17;;;3.20;;
16352;SDS011;8286;51.274;9.542;2024-03-17T01:15:31;7.03;;;3.27;;
16352;SDS011;8286;51.274;9.542;2024-03-17T01:17:58;7.33;;;3.60;;
16352;SDS011;8286;51.274;9.542;2024-03-17T01:20:24;7.30;;;3.70;;
16352;SDS011;8286;51.274;9.542;2024-03-17T01:22:50;8.10;;;3.77;;
16352;SDS011;8286;51.274;9.542;2024-03-17T01:25:16;3.63;;;2.90;;
16352;SDS011;8286;51.274;9.542;2024-03-17T01:27:42;6.83;;;3.50;;
16352;SDS011;8286;51.274;9.542;2024-03-17T01:30:10;5.93;;;2.90;;
16352;SDS011;8286;51.274;9.542;2024-03-17T01:32:37;6.80;;;3.67;;
16352;SDS011;8286;51.274;9.542;2024-03-17T01:35:03;6.00;;;3.50;;
16352;SDS011;8286;51.274;9.542;2024-03-17T01:37:31;4.80;;;3.47;;
16352;SDS011;8286;51.274;9.542;2024-03-17T01:39:57;7.37;;;3.53;;
16352;SDS011;8286;51.274;9.542;2024-03-17T01:42:23;7.27;;;3.63;;
16352;SDS011;8286;51.274;9.542;2024-03-17T01:44:49;5.07;;;3.10;;
16352;SDS011;8286;51.274;9.542;2024-03-17T01:47:18;5.97;;;3.33;;
16352;SDS011;8286;51.274;9.542;2024-03-17T01:49:44;7.57;;;2.87;;
16352;SDS011;8286;51.274;9.542;2024-03-17T01:52:10;8.60;;;3.00;;
16352;SDS011;8286;51.274;9.542;2024-03-17T01:54:36;7.03;;;3.07;;
16352;SDS011;8286;51.274;9.542;2024-03-17T01:57:03;8.50;;;3.57;;
16352;SDS011;8286;51.274;9.542;2024-03-17T01:59:28;4.70;;;3.00;;
16352;SDS011;8286;51.274;9.542;2024-03-17T02:01:55;4.77;;;3.03;;
16352;SDS011;8286;51.274;9.542;2024-03-17T02:04:23;4.50;;;3.40;;
16352;SDS011;8286;51.274;9.542;2024-03-17T02:06:49;6.47;;;3.87;;
16352;SDS011;8286;51.274;9.542;2024-03-17T02:09:15;5.10;;;2.97;;
16352;SDS011;8286;51.274;9.542;2024-03-17T02:11:41;4.37;;;3.03;;
16352;SDS011;8286;51.274;9.542;2024-03-17T02:14:08;6.37;;;3.17;;
16352;SDS011;8286;51.274;9.542;2024-03-17T02:16:34;5.27;;;3.50;;
16352;SDS011;8286;51.274;9.542;2024-03-17T02:19:00;5.83;;;2.83;;
16352;SDS011;8286;51.274;9.542;2024-03-17T02:21:27;5.97;;;3.00;;
16352;SDS011;8286;51.274;9.542;2024-03-17T02:23:56;4.53;;;3.13;;
16352;SDS011;8286;51.274;9.542;2024-03-17T02:26:22;5.50;;;2.80;;
16352;SDS011;8286;51.274;9.542;2024-03-17T02:28:49;3.77;;;2.70;;
16352;SDS011;8286;51.274;9.542;2024-03-17T02:31:15;3.30;;;2.40;;
16352;SDS011;8286;51.274;9.542;2024-03-17T02:33:42;2.60;;;2.37;;
16352;SDS011;8286;51.274;9.542;2024-03-17T02:36:08;4.70;;;2.40;;
16352;SDS011;8286;51.274;9.542;2024-03-17T02:38:37;5.50;;;2.97;;
16352;SDS011;8286;51.274;9.542;2024-03-17T02:41:22;8.83;;;3.00;;
16352;SDS011;8286;51.274;9.542;2024-03-17T02:43:49;7.00;;;2.80;;
16352;SDS011;8286;51.274;9.542;2024-03-17T02:46:16;5.17;;;2.73;;
16352;SDS011;8286;51.274;9.542;2024-03-17T02:48:44;6.80;;;2.87;;
16352;SDS011;8286;51.274;9.542;2024-03-17T02:51:12;6.90;;;2.60;;
16352;SDS011;8286;51.274;9.542;2024-03-17T02:53:40;3.70;;;2.60;;
16352;SDS011;8286;51.274;9.542;2024-03-17T02:56:06;3.67;;;2.30;;
16352;SDS011;8286;51.274;9.542;2024-03-17T02:58:35;7.03;;;2.70;;
16352;SDS011;8286;51.274;9.542;2024-03-17T03:01:02;4.17;;;2.93;;
16352;SDS011;8286;51.274;9.542;2024-03-17T03:03:29;4.10;;;2.47;;
16352;SDS011;8286;51.274;9.542;2024-03-17T03:05:56;5.67;;;2.60;;
16352;SDS011;8286;51.274;9.542;2024-03-17T03:08:23;3.27;;;2.37;;
16352;SDS011;8286;51.274;9.542;2024-03-17T03:10:50;4.77;;;2.30;;
16352;SDS011;8286;51.274;9.542;2024-03-17T03:13:17;2.87;;;2.03;;
16352;SDS011;8286;51.274;9.542;2024-03-17T03:15:46;3.90;;;2.43;;
16352;SDS011;8286;51.274;9.542;2024-03-17T03:18:12;4.00;;;2.77;;
16352;SDS011;8286;51.274;9.542;2024-03-17T03:20:39;5.50;;;2.80;;
16352;SDS011;8286;51.274;9.542;2024-03-17T03:23:05;3.67;;;2.63;;
16352;SDS011;8286;51.274;9.542;2024-03-17T03:25:32;4.17;;;3.10;;
16352;SDS011;8286;51.274;9.542;2024-03-17T03:27:59;4.03;;;2.90;;
16352;SDS011;8286;51.274;9.542;2024-03-17T03:30:27;4.07;;;2.83;;
16352;SDS011;8286;51.274;9.542;2024-03-17T03:32:55;3.70;;;2.60;;
16352;SDS011;8286;51.274;9.542;2024-03-17T03:35:21;6.33;;;3.10;;
16352;SDS011;8286;51.274;9.542;2024-03-17T03:37:49;6.13;;;2.97;;
16352;SDS011;8286;51.274;9.542;2024-03-17T03:40:16;8.10;;;2.67;;
16352;SDS011;8286;51.274;9.542;2024-03-17T03:42:43;3.27;;;2.40;;
16352;SDS011;8286;51.274;9.542;2024-03-17T03:45:10;4.13;;;2.47;;
16352;SDS011;8286;51.274;9.542;2024-03-17T03:47:37;3.57;;;2.90;;
16352;SDS011;8286;51.274;9.542;2024-03-17T03:50:06;2.87;;;2.50;;
16352;SDS011;8286;51.274;9.542;2024-03-17T03:52:34;4.73;;;2.67;;
16352;SDS011;8286;51.274;9.542;2024-03-17T03:55:00;4.23;;;2.80;;
16352;SDS011;8286;51.274;9.542;2024-03-17T03:57:29;4.37;;;2.90;;
16352;SDS011;8286;51.274;9.542;2024-03-17T03:59:57;4.10;;;2.40;;
16352;SDS011;8286;51.274;9.542;2024-03-17T04:02:23;6.20;;;2.90;;
16352;SDS011;8286;51.274;9.542;2024-03-17T04:04:52;3.10;;;2.80;;
16352;SDS011;8286;51.274;9.542;2024-03-17T04:07:20;6.70;;;2.90;;
16352;SDS011;8286;51.274;9.542;2024-03-17T04:09:47;7.50;;;3.13;;
16352;SDS011;8286;51.274;9.542;2024-03-17T04:12:13;8.10;;;2.87;;
16352;SDS011;8286;51.274;9.542;2024-03-17T04:14:40;4.97;;;2.90;;
16352;SDS011;8286;51.274;9.542;2024-03-17T04:17:07;5.40;;;2.90;;
16352;SDS011;8286;51.274;9.542;2024-03-17T04:19:33;5.23;;;2.47;;
16352;SDS011;8286;51.274;9.542;2024-03-17T04:22:00;4.13;;;2.97;;
16352;SDS011;8286;51.274;9.542;2024-03-17T04:24:27;4.03;;;3.47;;
16352;SDS011;8286;51.274;9.542;2024-03-17T04:26:54;4.60;;;2.77;;
16352;SDS011;8286;51.274;9.542;2024-03-17T04:29:21;4.50;;;3.10;;
16352;SDS011;8286;51.274;9.542;2024-03-17T04:31:47;7.47;;;3.10;;
16352;SDS011;8286;51.274;9.542;2024-03-17T04:34:14;6.50;;;3.20;;
16352;SDS011;8286;51.274;9.542;2024-03-17T04:36:41;3.77;;;2.93;;
16352;SDS011;8286;51.274;9.542;2024-03-17T04:39:07;10.53;;;3.33;;
16352;SDS011;8286;51.274;9.542;2024-03-17T04:41:35;8.37;;;2.93;;
16352;SDS011;8286;51.274;9.542;2024-03-17T04:44:03;4.43;;;3.03;;
16352;SDS011;8286;51.274;9.542;2024-03-17T04:46:31;8.73;;;3.03;;
16352;SDS011;8286;51.274;9.542;2024-03-17T04:48:58;5.33;;;3.00;;
16352;SDS011;8286;51.274;9.542;2024-03-17T04:51:24;4.30;;;3.70;;
16352;SDS011;8286;51.274;9.542;2024-03-17T04:53:51;3.53;;;2.73;;
16352;SDS011;8286;51.274;9.542;2024-03-17T04:56:17;5.57;;;3.03;;
16352;SDS011;8286;51.274;9.542;2024-03-17T04:58:45;4.20;;;3.07;;
16352;SDS011;8286;51.274;9.542;2024-03-17T05:01:12;3.40;;;2.77;;
16352;SDS011;8286;51.274;9.542;2024-03-17T05:03:38;3.50;;;2.90;;
16352;SDS011;8286;51.274;9.542;2024-03-17T05:06:05;8.97;;;3.13;;
16352;SDS011;8286;51.274;9.542;2024-03-17T05:08:32;3.00;;;2.53;;
16352;SDS011;8286;51.274;9.542;2024-03-17T05:11:01;11.03;;;3.20;;
16352;SDS011;8286;51.274;9.542;2024-03-17T05:13:30;4.53;;;3.40;;
16352;SDS011;8286;51.274;9.542;2024-03-17T05:15:58;3.00;;;2.70;;
16352;SDS011;8286;51.274;9.542;2024-03-17T05:18:25;4.93;;;2.90;;
16352;SDS011;8286;51.274;9.542;2024-03-17T05:20:58;5.33;;;3.40;;
16352;SDS011;8286;51.274;9.542;2024-03-17T05:23:25;6.60;;;3.13;;
16352;SDS011;8286;51.274;9.542;2024-03-17T05:25:53;6.03;;;3.13;;
16352;SDS011;8286;51.274;9.542;2024-03-17T05:28:19;8.07;;;3.37;;
16352;SDS011;8286;51.274;9.542;2024-03-17T05:30:46;5.07;;;3.50;;
16352;SDS011;8286;51.274;9.542;2024-03-17T05:33:14;4.50;;;2.77;;
16352;SDS011;8286;51.274;9.542;2024-03-17T05:35:47;4.43;;;3.40;;
16352;SDS011;8286;51.274;9.542;2024-03-17T05:38:14;5.17;;;3.30;;
16352;SDS011;8286;51.274;9.542;2024-03-17T05:40:41;8.30;;;4.23;;
16352;SDS011;8286;51.274;9.542;2024-03-17T05:43:08;5.17;;;3.10;;
16352;SDS011;8286;51.274;9.542;2024-03-17T05:45:34;6.40;;;3.30;;
16352;SDS011;8286;51.274;9.542;2024-03-17T05:48:01;7.20;;;3.43;;
16352;SDS011;8286;51.274;9.542;2024-03-17T05:50:31;12.33;;;3.80;;
16352;SDS011;8286;51.274;9.542;2024-03-17T05:52:58;5.67;;;3.27;;
16352;SDS011;8286;51.274;9.542;2024-03-17T05:55:24;5.43;;;3.10;;
16352;SDS011;8286;51.274;9.542;2024-03-17T05:57:51;5.33;;;3.17;;
16352;SDS011;8286;51.274;9.542;2024-03-17T06:00:19;3.67;;;3.13;;
16352;SDS011;8286;51.274;9.542;2024-03-17T06:02:45;5.70;;;3.30;;
16352;SDS011;8286;51.274;9.542;2024-03-17T06:05:12;8.37;;;3.27;;
16352;SDS011;8286;51.274;9.542;2024-03-17T06:07:40;6.10;;;3.30;;
16352;SDS011;8286;51.274;9.542;2024-03-17T06:10:07;6.47;;;3.70;;
16352;SDS011;8286;51.274;9.542;2024-03-17T06:12:34;3.23;;;2.63;;
16352;SDS011;8286;51.274;9.542;2024-03-17T06:15:02;4.33;;;2.97;;
16352;SDS011;8286;51.274;9.542;2024-03-17T06:17:29;5.97;;;3.17;;
16352;SDS011;8286;51.274;9.542;2024-03-17T06:19:55;5.83;;;3.03;;
16352;SDS011;8286;51.274;9.542;2024-03-17T06:22:23;4.53;;;2.90;;
16352;SDS011;8286;51.274;9.542;2024-03-17T06:24:51;4.77;;;2.50;;
16352;SDS011;8286;51.274;9.542;2024-03-17T06:27:17;3.30;;;3.00;;
16352;SDS011;8286;51.274;9.542;2024-03-17T06:29:44;5.17;;;2.93;;
16352;SDS011;8286;51.274;9.542;2024-03-17T06:32:11;9.27;;;2.60;;
16352;SDS011;8286;51.274;9.542;2024-03-17T06:34:38;5.97;;;3.13;;
16352;SDS011;8286;51.274;9.542;2024-03-17T06:37:04;3.47;;;2.83;;
16352;SDS011;8286;51.274;9.542;2024-03-17T06:39:31;5.60;;;4.00;;
16352;SDS011;8286;51.274;9.542;2024-03-17T06:41:59;5.67;;;3.93;;
16352;SDS011;8286;51.274;9.542;2024-03-17T06:44:26;5.33;;;3.63;;
16352;SDS011;8286;51.274;9.542;2024-03-17T06:46:55;9.13;;;3.93;;
16352;SDS011;8286;51.274;9.542;2024-03-17T06:49:22;5.67;;;2.93;;
16352;SDS011;8286;51.274;9.542;2024-03-17T06:51:48;3.50;;;3.20;;
16352;SDS011;8286;51.274;9.542;2024-03-17T06:54:15;3.17;;;2.90;;
16352;SDS011;8286;51.274;9.542;2024-03-17T06:56:41;5.00;;;3.40;;
16352;SDS011;8286;51.274;9.542;2024-03-17T06:59:09;5.23;;;3.60;;
16352;SDS011;8286;51.274;9.542;2024-03-17T07:01:36;4.20;;;2.97;;
16352;SDS011;8286;51.274;9.542;2024-03-17T07:04:02;7.90;;;3.20;;
16352;SDS011;8286;51.274;9.542;2024-03-17T07:06:29;11.90;;;3.33;;
16352;SDS011;8286;51.274;9.542;2024-03-17T07:08:55;6.70;;;3.20;;
16352;SDS011;8286;51.274;9.542;2024-03-17T07:11:22;9.57;;;3.30;;
16352;SDS011;8286;51.274;9.542;2024-03-17T07:13:50;3.70;;;2.90;;
16352;SDS011;8286;51.274;9.542;2024-03-17T07:16:18;7.30;;;3.90;;
16352;SDS011;8286;51.274;9.542;2024-03-17T07:18:46;5.10;;;3.40;;
16352;SDS011;8286;51.274;9.542;2024-03-17T07:21:13;4.03;;;3.57;;
16352;SDS011;8286;51.274;9.542;2024-03-17T07:23:40;7.03;;;3.10;;
16352;SDS011;8286;51.274;9.542;2024-03-17T07:26:06;5.77;;;3.10;;
16352;SDS011;8286;51.274;9.542;2024-03-17T07:28:34;6.47;;;3.50;;
16352;SDS011;8286;51.274;9.542;2024-03-17T07:31:05;3.63;;;3.10;;
16352;SDS011;8286;51.274;9.542;2024-03-17T07:33:34;5.23;;;3.20;;
16352;SDS011;8286;51.274;9.542;2024-03-17T07:36:01;4.83;;;3.27;;
16352;SDS011;8286;51.274;9.542;2024-03-17T07:38:28;6.03;;;3.20;;
16352;SDS011;8286;51.274;9.542;2024-03-17T07:40:56;5.00;;;3.03;;
16352;SDS011;8286;51.274;9.542;2024-03-17T07:43:23;4.40;;;3.17;;
16352;SDS011;8286;51.274;9.542;2024-03-17T07:45:56;5.50;;;3.33;;
16352;SDS011;8286;51.274;9.542;2024-03-17T07:48:23;7.03;;;3.47;;
16352;SDS011;8286;51.274;9.542;2024-03-17T07:50:54;4.27;;;3.50;;
16352;SDS011;8286;51.274;9.542;2024-03-17T07:53:21;5.37;;;4.03;;
16352;SDS011;8286;51.274;9.542;2024-03-17T07:55:56;6.53;;;3.90;;
16352;SDS011;8286;51.274;9.542;2024-03-17T07:58:23;9.53;;;3.63;;
16352;SDS011;8286;51.274;9.542;2024-03-17T08:00:50;9.93;;;3.87;;
16352;SDS011;8286;51.274;9.542;2024-03-17T08:03:17;6.70;;;4.10;;
16352;SDS011;8286;51.274;9.542;2024-03-17T08:05:47;5.40;;;3.10;;
16352;SDS011;8286;51.274;9.542;2024-03-17T08:08:15;5.27;;;3.60;;
16352;SDS011;8286;51.274;9.542;2024-03-17T08:10:42;7.03;;;3.37;;
16352;SDS011;8286;51.274;9.542;2024-03-17T08:13:08;5.63;;;3.53;;
16352;SDS011;8286;51.274;9.542;2024-03-17T08:15:35;8.67;;;4.13;;
16352;SDS011;8286;51.274;9.542;2024-03-17T08:18:01;7.93;;;4.53;;
16352;SDS011;8286;51.274;9.542;2024-03-17T08:20:29;7.40;;;4.37;;
16352;SDS011;8286;51.274;9.542;2024-03-17T08:22:55;4.37;;;3.60;;
16352;SDS011;8286;51.274;9.542;2024-03-17T08:25:23;6.33;;;3.70;;
16352;SDS011;8286;51.274;9.542;2024-03-17T08:27:50;5.93;;;4.07;;
16352;SDS011;8286;51.274;9.542;2024-03-17T08:30:16;5.73;;;3.97;;
16352;SDS011;8286;51.274;9.542;2024-03-17T08:32:43;9.10;;;3.87;;
16352;SDS011;8286;51.274;9.542;2024-03-17T08:35:10;7.10;;;4.17;;
16352;SDS011;8286;51.274;9.542;2024-03-17T08:37:36;7.13;;;4.33;;
16352;SDS011;8286;51.274;9.542;2024-03-17T08:40:03;7.83;;;3.93;;
16352;SDS011;8286;51.274;9.542;2024-03-17T08:42:33;9.20;;;4.07;;
16352;SDS011;8286;51.274;9.542;2024-03-17T08:44:59;7.83;;;4.00;;
16352;SDS011;8286;51.274;9.542;2024-03-17T08:47:26;7.10;;;4.20;;
16352;SDS011;8286;51.274;9.542;2024-03-17T08:49:52;7.23;;;4.60;;
16352;SDS011;8286;51.274;9.542;2024-03-17T08:52:19;7.07;;;4.10;;
16352;SDS011;8286;51.274;9.542;2024-03-17T08:54:46;6.37;;;4.43;;
16352;SDS011;8286;51.274;9.542;2024-03-17T08:57:12;7.97;;;4.23;;
16352;SDS011;8286;51.274;9.542;2024-03-17T08:59:40;8.77;;;4.60;;
16352;SDS011;8286;51.274;9.542;2024-03-17T09:02:07;9.10;;;4.70;;
16352;SDS011;8286;51.274;9.542;2024-03-17T09:04:38;6.23;;;4.57;;
16352;SDS011;8286;51.274;9.542;2024-03-17T09:07:04;8.00;;;4.90;;
16352;SDS011;8286;51.274;9.542;2024-03-17T09:09:31;7.70;;;4.67;;
16352;SDS011;8286;51.274;9.542;2024-03-17T09:11:58;8.00;;;4.73;;
16352;SDS011;8286;51.274;9.542;2024-03-17T09:14:24;6.27;;;4.53;;
16352;SDS011;8286;51.274;9.542;2024-03-17T09:16:52;8.73;;;4.47;;
16352;SDS011;8286;51.274;9.542;2024-03-17T09:19:20;7.00;;;4.73;;
16352;SDS011;8286;51.274;9.542;2024-03-17T09:21:47;10.27;;;4.97;;
16352;SDS011;8286;51.274;9.542;2024-03-17T09:24:13;9.33;;;4.67;;
16352;SDS011;8286;51.274;9.542;2024-03-17T09:26:40;7.93;;;5.17;;
16352;SDS011;8286;51.274;9.542;2024-03-17T09:29:06;11.93;;;5.93;;
16352;SDS011;8286;51.274;9.542;2024-03-17T09:31:33;8.80;;;5.77;;
16352;SDS011;8286;51.274;9.542;2024-03-17T09:34:01;7.30;;;5.40;;
16352;SDS011;8286;51.274;9.542;2024-03-17T09:36:28;8.43;;;5.27;;
16352;SDS011;8286;51.274;9.542;2024-03-17T09:38:56;8.03;;;5.53;;
16352;SDS011;8286;51.274;9.542;2024-03-17T09:41:23;6.50;;;5.13;;
16352;SDS011;8286;51.274;9.542;2024-03-17T09:43:52;7.47;;;5.60;;
16352;SDS011;8286;51.274;9.542;2024-03-17T09:46:19;8.67;;;5.80;;
16352;SDS011;8286;51.274;9.542;2024-03-17T09:48:46;7.03;;;5.20;;
16352;SDS011;8286;51.274;9.542;2024-03-17T09:51:16;7.40;;;5.57;;
16352;SDS011;8286;51.274;9.542;2024-03-17T09:53:45;9.03;;;5.17;;
16352;SDS011;8286;51.274;9.542;2024-03-17T09:56:12;6.90;;;4.70;;
16352;SDS011;8286;51.274;9.542;2024-03-17T09:58:41;10.53;;;5.13;;
16352;SDS011;8286;51.274;9.542;2024-03-17T10:01:08;8.33;;;4.60;;
16352;SDS011;8286;51.274;9.542;2024-03-17T10:03:44;7.50;;;4.80;;
16352;SDS011;8286;51.274;9.542;2024-03-17T10:06:11;8.63;;;5.10;;
16352;SDS011;8286;51.274;9.542;2024-03-17T10:08:44;7.90;;;4.87;;
16352;SDS011;8286;51.274;9.542;2024-03-17T10:11:11;8.80;;;5.77;;
16352;SDS011;8286;51.274;9.542;2024-03-17T10:13:38;7.70;;;5.77;;
16352;SDS011;8286;51.274;9.542;2024-03-17T10:16:04;5.90;;;4.80;;
16352;SDS011;8286;51.274;9.542;2024-03-17T10:18:31;8.67;;;5.37;;
16352;SDS011;8286;51.274;9.542;2024-03-17T10:20:58;5.87;;;5.00;;
16352;SDS011;8286;51.274;9.542;2024-03-17T10:23:26;7.25;;;5.07;;
16352;SDS011;8286;51.274;9.542;2024-03-17T10:25:54;7.38;;;4.90;;
16352;SDS011;8286;51.274;9.542;2024-03-17T10:28:21;7.82;;;4.80;;
16352;SDS011;8286;51.274;9.542;2024-03-17T10:30:57;6.40;;;5.15;;
16352;SDS011;8286;51.274;9.542;2024-03-17T10:33:24;10.38;;;5.95;;
16352;SDS011;8286;51.274;9.542;2024-03-17T10:35:57;8.13;;;6.28;;
16352;SDS011;8286;51.274;9.542;2024-03-17T10:38:25;9.37;;;5.60;;
16352;SDS011;8286;51.274;9.542;2024-03-17T10:40:52;4.97;;;4.47;;
16352;SDS011;8286;51.274;9.542;2024-03-17T10:43:20;8.85;;;5.43;;
16352;SDS011;8286;51.274;9.542;2024-03-17T10:45:51;14.40;;;5.57;;
16352;SDS011;8286;51.274;9.542;2024-03-17T10:48:19;8.82;;;5.43;;
16352;SDS011;8286;51.274;9.542;2024-03-17T10:50:46;7.32;;;4.50;;
16352;SDS011;8286;51.274;9.542;2024-03-17T10:53:13;7.13;;;5.07;;
16352;SDS011;8286;51.274;9.542;2024-03-17T10:55:51;7.60;;;4.95;;
16352;SDS011;8286;51.274;9.542;2024-03-17T10:58:28;7.90;;;5.85;;
16352;SDS011;8286;51.274;9.542;2024-03-17T11:01:01;6.43;;;5.13;;
16352;SDS011;8286;51.274;9.542;2024-03-17T11:03:29;7.53;;;5.07;;
16352;SDS011;8286;51.274;9.542;2024-03-17T11:05:57;7.03;;;5.13;;
16352;SDS011;8286;51.274;9.542;2024-03-17T11:08:24;11.63;;;6.10;;
16352;SDS011;8286;51.274;9.542;2024-03-17T11:10:52;9.55;;;5.75;;
16352;SDS011;8286;51.274;9.542;2024-03-17T11:13:23;8.38;;;5.15;;
16352;SDS011;8286;51.274;9.542;2024-03-17T11:15:51;7.93;;;5.70;;
16352;SDS011;8286;51.274;9.542;2024-03-17T11:21:07;7.65;;;5.22;;
16352;SDS011;8286;51.274;9.542;2024-03-17T11:23:54;10.07;;;5.80;;
16352;SDS011;8286;51.274;9.542;2024-03-17T11:26:25;9.63;;;5.40;;
16352;SDS011;8286;51.274;9.542;2024-03-17T11:28:53;11.85;;;5.75;;
16352;SDS011;8286;51.274;9.542;2024-03-17T11:31:38;6.97;;;5.60;;
16352;SDS011;8286;51.274;9.542;2024-03-17T11:34:26;7.87;;;5.90;;
16352;SDS011;8286;51.274;9.542;2024-03-17T11:36:54;11.40;;;6.10;;
16352;SDS011;8286;51.274;9.542;2024-03-17T11:39:21;10.67;;;5.90;;
16352;SDS011;8286;51.274;9.542;2024-03-17T11:42:24;6.43;;;5.70;;
16352;SDS011;8286;51.274;9.542;2024-03-17T11:44:55;10.05;;;5.93;;
16352;SDS011;8286;51.274;9.542;2024-03-17T11:47:24;6.43;;;5.03;;
16352;SDS011;8286;51.274;9.542;2024-03-17T11:50:01;8.55;;;6.07;;
16352;SDS011;8286;51.274;9.542;2024-03-17T11:52:27;9.02;;;5.65;;
16352;SDS011;8286;51.274;9.542;2024-03-17T11:54:54;8.40;;;5.85;;
16352;SDS011;8286;51.274;9.542;2024-03-17T11:57:20;9.60;;;6.57;;
16352;SDS011;8286;51.274;9.542;2024-03-17T11:59:48;9.10;;;5.50;;
16352;SDS011;8286;51.274;9.542;2024-03-17T12:02:16;12.23;;;5.72;;
16352;SDS011;8286;51.274;9.542;2024-03-17T12:04:48;11.88;;;6.40;;
16352;SDS011;8286;51.274;9.542;2024-03-17T12:07:15;8.80;;;6.32;;
16352;SDS011;8286;51.274;9.542;2024-03-17T12:09:43;9.68;;;6.35;;
16352;SDS011;8286;51.274;9.542;2024-03-17T12:12:11;8.80;;;5.97;;
16352;SDS011;8286;51.274;9.542;2024-03-17T12:14:40;8.30;;;6.22;;
16352;SDS011;8286;51.274;9.542;2024-03-17T12:17:06;8.90;;;6.07;;
16352;SDS011;8286;51.274;9.542;2024-03-17T12:19:34;8.75;;;5.90;;
16352;SDS011;8286;51.274;9.542;2024-03-17T12:22:02;9.43;;;5.63;;
16352;SDS011;8286;51.274;9.542;2024-03-17T12:24:30;9.15;;;6.47;;
16352;SDS011;8286;51.274;9.542;2024-03-17T12:26:57;10.35;;;7.05;;
16352;SDS011;8286;51.274;9.542;2024-03-17T12:29:26;8.63;;;5.57;;
16352;SDS011;8286;51.274;9.542;2024-03-17T12:31:52;7.87;;;6.10;;
16352;SDS011;8286;51.274;9.542;2024-03-17T12:34:20;8.83;;;5.90;;
16352;SDS011;8286;51.274;9.542;2024-03-17T12:36:46;9.30;;;6.57;;
16352;SDS011;8286;51.274;9.542;2024-03-17T12:39:17;7.40;;;5.83;;
16352;SDS011;8286;51.274;9.542;2024-03-17T12:41:44;8.93;;;6.40;;
16352;SDS011;8286;51.274;9.542;2024-03-17T12:44:20;11.57;;;6.87;;
16352;SDS011;8286;51.274;9.542;2024-03-17T12:46:46;7.43;;;6.30;;
16352;SDS011;8286;51.274;9.542;2024-03-17T12:49:13;9.15;;;6.15;;
16352;SDS011;8286;51.274;9.542;2024-03-17T12:51:38;9.23;;;6.40;;
16352;SDS011;8286;51.274;9.542;2024-03-17T12:54:14;10.80;;;7.00;;
16352;SDS011;8286;51.274;9.542;2024-03-17T12:56:41;8.90;;;6.43;;
16352;SDS011;8286;51.274;9.542;2024-03-17T12:59:25;9.47;;;6.27;;
16352;SDS011;8286;51.274;9.542;2024-03-17T13:02:20;10.40;;;6.40;;
16352;SDS011;8286;51.274;9.542;2024-03-17T13:04:48;10.43;;;6.57;;
16352;SDS011;8286;51.274;9.542;2024-03-17T13:07:31;9.23;;;6.00;;
16352;SDS011;8286;51.274;9.542;2024-03-17T13:09:58;12.53;;;6.67;;
16352;SDS011;8286;51.274;9.542;2024-03-17T13:12:26;7.90;;;6.10;;
16352;SDS011;8286;51.274;9.542;2024-03-17T13:14:53;9.97;;;6.40;;
16352;SDS011;8286;51.274;9.542;2024-03-17T13:17:19;8.70;;;5.53;;
16352;SDS011;8286;51.274;9.542;2024-03-17T13:19:46;7.83;;;5.57;;
16352;SDS011;8286;51.274;9.542;2024-03-17T13:22:13;7.17;;;5.37;;
16352;SDS011;8286;51.274;9.542;2024-03-17T13:24:39;8.67;;;5.90;;
16352;SDS011;8286;51.274;9.542;2024-03-17T13:27:06;7.27;;;5.23;;
16352;SDS011;8286;51.274;9.542;2024-03-17T13:29:34;7.97;;;5.17;;
16352;SDS011;8286;51.274;9.542;2024-03-17T13:32:02;5.90;;;4.77;;
16352;SDS011;8286;51.274;9.542;2024-03-17T13:34:29;9.20;;;5.37;;
16352;SDS011;8286;51.274;9.542;2024-03-17T13:36:56;5.30;;;4.77;;
16352;SDS011;8286;51.274;9.542;2024-03-17T13:39:22;7.37;;;4.73;;
16352;SDS011;8286;51.274;9.542;2024-03-17T13:41:56;4.97;;;4.43;;
16352;SDS011;8286;51.274;9.542;2024-03-17T13:44:27;7.93;;;5.47;;
16352;SDS011;8286;51.274;9.542;2024-03-17T13:46:55;5.50;;;4.77;;
16352;SDS011;8286;51.274;9.542;2024-03-17T13:49:22;7.30;;;4.43;;
16352;SDS011;8286;51.274;9.542;2024-03-17T13:51:49;5.07;;;4.43;;
16352;SDS011;8286;51.274;9.542;2024-03-17T13:54:15;6.40;;;4.90;;
16352;SDS011;8286;51.274;9.542;2024-03-17T13:56:42;10.57;;;5.13;;
16352;SDS011;8286;51.274;9.542;2024-03-17T13:59:08;6.73;;;4.97;;
16352;SDS011;8286;51.274;9.542;2024-03-17T14:01:35;7.20;;;4.87;;
16352;SDS011;8286;51.274;9.542;2024-03-17T14:04:03;5.93;;;4.27;;
16352;SDS011;8286;51.274;9.542;2024-03-17T14:06:30;7.03;;;4.60;;
16352;SDS011;8286;51.274;9.542;2024-03-17T14:08:56;7.73;;;4.87;;
16352;SDS011;8286;51.274;9.542;2024-03-17T14:11:23;6.93;;;5.17;;
16352;SDS011;8286;51.274;9.542;2024-03-17T14:13:50;6.37;;;4.53;;
16352;SDS011;8286;51.274;9.542;2024-03-17T14:16:16;5.87;;;3.73;;
16352;SDS011;8286;51.274;9.542;2024-03-17T14:18:43;6.30;;;4.47;;
16352;SDS011;8286;51.274;9.542;2024-03-17T14:21:11;7.37;;;4.43;;
16352;SDS011;8286;51.274;9.542;2024-03-17T14:23:37;5.77;;;4.53;;
16352;SDS011;8286;51.274;9.542;2024-03-17T14:26:04;7.30;;;4.90;;
16352;SDS011;8286;51.274;9.542;2024-03-17T14:28:31;7.60;;;4.20;;
16352;SDS011;8286;51.274;9.542;2024-03-17T14:30:58;6.37;;;4.47;;
16352;SDS011;8286;51.274;9.542;2024-03-17T14:33:24;7.53;;;4.50;;
16352;SDS011;8286;51.274;9.542;2024-03-17T14:35:55;5.13;;;3.90;;
16352;SDS011;8286;51.274;9.542;2024-03-17T14:38:23;5.30;;;3.90;;
16352;SDS011;8286;51.274;9.542;2024-03-17T14:40:51;8.70;;;4.27;;
16352;SDS011;8286;51.274;9.542;2024-03-17T14:43:18;5.80;;;4.40;;
16352;SDS011;8286;51.274;9.542;2024-03-17T14:45:45;4.53;;;3.53;;
16352;SDS011;8286;51.274;9.542;2024-03-17T14:48:12;5.50;;;4.40;;
16352;SDS011;8286;51.274;9.542;2024-03-17T14:50:38;11.03;;;4.40;;
16352;SDS011;8286;51.274;9.542;2024-03-17T14:53:05;5.77;;;4.60;;
16352;SDS011;8286;51.274;9.542;2024-03-17T14:55:33;7.50;;;4.70;;
16352;SDS011;8286;51.274;9.542;2024-03-17T14:58:00;6.33;;;4.70;;
16352;SDS011;8286;51.274;9.542;2024-03-17T15:00:27;8.17;;;4.53;;
16352;SDS011;8286;51.274;9.542;2024-03-17T15:02:56;8.47;;;4.10;;
16352;SDS011;8286;51.274;9.542;2024-03-17T15:05:23;6.00;;;4.10;;
16352;SDS011;8286;51.274;9.542;2024-03-17T15:07:51;5.67;;;4.67;;